createdAt,value
2023-05-21T00:01:51.434Z,6.13
2023-05-21T00:06:53.013Z,10.15
2023-05-21T00:11:54.620Z,7.03
2023-05-21T00:16:56.155Z,6.75
2023-05-21T00:21:57.689Z,5.97
2023-05-21T00:26:59.262Z,7.18
2023-05-21T00:32:01.083Z,6.70
2023-05-21T00:37:03.106Z,5.72
2023-05-21T00:42:04.992Z,7.20
2023-05-21T00:47:07.275Z,6.15
2023-05-21T00:52:09.144Z,5.32
2023-05-21T00:57:10.937Z,5.53
2023-05-21T01:02:14.341Z,8.05
2023-05-21T01:07:15.984Z,6.45
2023-05-21T01:12:18.789Z,5.57
2023-05-21T01:17:24.388Z,4.95
2023-05-21T01:22:28.627Z,5.83
2023-05-21T01:27:30.211Z,6.00
2023-05-21T01:32:38.544Z,5.85
2023-05-21T01:37:50.064Z,5.63
2023-05-21T01:42:52.108Z,5.88
2023-05-21T01:47:55.823Z,5.57
2023-05-21T01:52:58.630Z,6.28
2023-05-21T01:58:02.359Z,6.13
2023-05-21T02:03:04.294Z,5.88
2023-05-21T02:08:08.455Z,5.88
2023-05-21T02:13:10.048Z,5.35
2023-05-21T02:18:16.882Z,5.85
2023-05-21T02:23:18.665Z,7.03
2023-05-21T02:28:21.369Z,5.72
2023-05-21T02:33:23.061Z,6.30
2023-05-21T02:38:25.901Z,6.18
2023-05-21T02:43:27.461Z,6.43
2023-05-21T02:48:28.997Z,4.85
2023-05-21T02:53:30.611Z,5.35
2023-05-21T02:58:33.401Z,4.88
2023-05-21T03:03:35.191Z,5.65
2023-05-21T03:08:37.455Z,5.22
2023-05-21T03:13:39.192Z,4.82
2023-05-21T03:18:40.979Z,6.07
2023-05-21T03:23:42.708Z,4.78
2023-05-21T03:28:44.313Z,5.10
2023-05-21T03:33:46.084Z,5.43
2023-05-21T03:38:47.775Z,5.07
2023-05-21T03:43:49.356Z,6.10
2023-05-21T03:48:51.116Z,5.57
2023-05-21T03:53:52.767Z,5.38
2023-05-21T03:58:54.500Z,5.95
2023-05-21T04:03:56.335Z,6.50
2023-05-21T04:08:58.039Z,4.93
2023-05-21T04:13:59.651Z,5.07
2023-05-21T04:19:01.304Z,5.00
2023-05-21T04:24:03.911Z,4.60
2023-05-21T04:29:05.528Z,5.30
2023-05-21T04:34:07.213Z,5.53
2023-05-21T04:39:08.774Z,4.90
2023-05-21T04:44:10.427Z,6.22
2023-05-21T04:49:12.028Z,4.80
2023-05-21T04:54:13.602Z,6.90
2023-05-21T04:59:16.086Z,4.50
2023-05-21T05:04:17.686Z,6.63
2023-05-21T05:09:21.597Z,7.25
2023-05-21T05:14:23.207Z,6.75
2023-05-21T05:19:24.832Z,9.35
2023-05-21T05:24:26.569Z,6.38
2023-05-21T05:29:28.219Z,5.57
2023-05-21T05:34:29.842Z,5.32
2023-05-21T05:39:31.395Z,6.13
2023-05-21T05:44:32.973Z,6.97
2023-05-21T05:49:34.580Z,6.97
2023-05-21T05:54:36.155Z,7.13
2023-05-21T05:59:37.788Z,5.72
2023-05-21T06:04:39.362Z,7.80
2023-05-21T06:09:41.024Z,8.13
2023-05-21T06:14:44.993Z,7.93
2023-05-21T06:19:47.040Z,8.88
2023-05-21T06:24:49.822Z,7.10
2023-05-21T06:29:51.490Z,8.40
2023-05-21T06:34:53.084Z,11.40
2023-05-21T06:39:54.716Z,8.55
2023-05-21T06:44:56.323Z,13.30
2023-05-21T06:49:58.803Z,10.52
2023-05-21T06:55:00.512Z,11.52
2023-05-21T07:00:02.101Z,17.48
2023-05-21T07:05:03.754Z,12.90
2023-05-21T07:10:05.959Z,9.32
2023-05-21T07:15:08.108Z,10.55
2023-05-21T07:20:10.272Z,12.20
2023-05-21T07:25:11.956Z,10.45
2023-05-21T07:30:14.692Z,10.55
2023-05-21T07:35:16.423Z,10.25
2023-05-21T07:40:18.260Z,10.10
2023-05-21T07:45:19.968Z,8.15
2023-05-21T07:50:22.411Z,11.82
2023-05-21T07:55:24.031Z,10.18
2023-05-21T08:00:25.867Z,10.40
2023-05-21T08:05:27.421Z,10.43
2023-05-21T08:10:29.012Z,9.27
2023-05-21T08:15:30.726Z,11.05
2023-05-21T08:20:35.408Z,9.88
2023-05-21T08:25:37.168Z,8.95
2023-05-21T08:30:38.954Z,9.45
2023-05-21T08:35:40.553Z,7.53
2023-05-21T08:40:42.111Z,8.50
2023-05-21T08:45:59.353Z,11.30
2023-05-21T08:51:01.388Z,8.98
2023-05-21T08:56:03.343Z,7.22
2023-05-21T09:01:05.528Z,9.13
2023-05-21T09:06:11.144Z,7.75
2023-05-21T09:11:14.193Z,9.63
2023-05-21T09:16:15.913Z,9.93
2023-05-21T09:21:29.546Z,7.80
2023-05-21T09:26:31.294Z,8.45
2023-05-21T09:31:33.021Z,8.52
2023-05-21T09:36:38.478Z,10.25
2023-05-21T09:41:42.402Z,8.38
2023-05-21T09:46:44.028Z,8.30
2023-05-21T09:51:45.797Z,12.23
2023-05-21T09:56:47.400Z,9.05
2023-05-21T10:01:53.026Z,11.30
2023-05-21T10:06:54.777Z,9.45
2023-05-21T10:11:57.423Z,8.55
2023-05-21T10:17:00.540Z,6.80
2023-05-21T10:22:04.457Z,8.90
2023-05-21T10:27:07.472Z,12.13
2023-05-21T10:32:10.025Z,8.02
2023-05-21T10:37:13.220Z,10.20
2023-05-21T10:42:38.008Z,7.80
2023-05-21T10:47:42.691Z,11.57
2023-05-21T10:53:10.696Z,7.95
2023-05-21T10:58:12.442Z,10.68
2023-05-21T11:03:15.639Z,9.52
2023-05-21T11:08:28.120Z,8.63
2023-05-21T11:13:48.893Z,9.35
2023-05-21T11:18:50.481Z,8.90
2023-05-21T11:23:52.661Z,8.02
2023-05-21T11:29:06.608Z,6.85
2023-05-21T11:34:11.246Z,9.35
2023-05-21T11:39:21.727Z,8.52
2023-05-21T11:44:44.124Z,6.45
2023-05-21T11:49:46.739Z,7.22
2023-05-21T11:54:57.952Z,6.63
2023-05-21T12:00:01.565Z,7.57
2023-05-21T12:05:03.237Z,6.93
2023-05-21T12:10:05.619Z,7.10
2023-05-21T12:15:07.744Z,11.52
2023-05-21T12:20:10.819Z,7.68
2023-05-21T12:25:12.469Z,6.93
2023-05-21T12:30:14.736Z,6.32
2023-05-21T12:35:23.387Z,4.88
2023-05-21T12:40:36.976Z,6.85
2023-05-21T12:45:41.773Z,8.55
2023-05-21T12:50:43.523Z,8.90
2023-05-21T12:55:45.074Z,5.30
2023-05-21T13:00:46.786Z,6.80
2023-05-21T13:05:48.397Z,5.63
2023-05-21T13:10:50.060Z,7.05
2023-05-21T13:15:52.614Z,6.93
2023-05-21T13:20:54.219Z,7.28
2023-05-21T13:25:55.795Z,5.13
2023-05-21T13:30:57.343Z,5.35
2023-05-21T13:35:58.934Z,6.28
2023-05-21T13:41:00.531Z,6.70
2023-05-21T13:46:03.043Z,9.50
2023-05-21T13:51:04.756Z,6.47
2023-05-21T13:56:06.492Z,5.22
2023-05-21T14:01:08.177Z,7.53
2023-05-21T14:06:09.770Z,9.43
2023-05-21T14:11:11.838Z,7.43
2023-05-21T14:16:13.522Z,5.15
2023-05-21T14:21:15.344Z,6.53
2023-05-21T14:26:17.446Z,6.25
2023-05-21T14:31:21.620Z,6.80
2023-05-21T14:36:23.199Z,6.43
2023-05-21T14:41:26.818Z,5.30
2023-05-21T14:46:28.414Z,7.30
2023-05-21T14:51:30.004Z,7.95
2023-05-21T14:56:31.562Z,6.22
2023-05-21T15:01:33.330Z,7.22
2023-05-21T15:06:35.077Z,5.78
2023-05-21T15:11:36.829Z,6.85
2023-05-21T15:16:38.592Z,7.72
2023-05-21T15:21:40.234Z,7.15
2023-05-21T15:26:41.836Z,9.23
2023-05-21T15:31:43.491Z,6.78
2023-05-21T15:36:45.100Z,8.20
2023-05-21T15:41:46.909Z,6.50
2023-05-21T15:46:53.837Z,7.63
2023-05-21T15:51:57.602Z,6.35
2023-05-21T15:56:59.464Z,4.93
2023-05-21T16:02:01.549Z,6.53
2023-05-21T16:07:03.252Z,5.63
2023-05-21T16:12:05.264Z,4.85
2023-05-21T16:17:07.206Z,4.28
2023-05-21T16:22:10.628Z,5.03
2023-05-21T16:27:12.884Z,5.60
2023-05-21T16:32:15.155Z,4.05
2023-05-21T16:37:22.736Z,4.57
2023-05-21T16:42:24.977Z,5.28
2023-05-21T16:47:27.207Z,3.47
2023-05-21T16:52:29.448Z,7.55
2023-05-21T16:57:31.754Z,4.45
2023-05-21T17:02:34.601Z,5.63
2023-05-21T17:07:36.981Z,4.00
2023-05-21T17:12:39.579Z,7.25
2023-05-21T17:17:41.914Z,6.10
2023-05-21T17:22:44.275Z,3.95
2023-05-21T17:27:46.550Z,4.72
2023-05-21T17:32:48.844Z,3.63
2023-05-21T17:37:51.269Z,3.60
2023-05-21T17:42:53.612Z,3.90
2023-05-21T17:47:59.594Z,5.03
2023-05-21T17:53:02.630Z,5.95
2023-05-21T17:58:06.358Z,4.18
2023-05-21T18:03:08.841Z,5.18
2023-05-21T18:08:11.268Z,5.53
2023-05-21T18:13:13.599Z,5.20
2023-05-21T18:18:21.372Z,5.63
2023-05-21T18:23:24.054Z,5.47
2023-05-21T18:28:28.143Z,4.75
2023-05-21T18:33:31.799Z,5.80
2023-05-21T18:38:34.489Z,5.15
2023-05-21T18:43:37.644Z,4.90
2023-05-21T18:48:40.026Z,6.13
2023-05-21T18:53:42.411Z,5.40
2023-05-21T18:58:44.737Z,5.60
2023-05-21T19:03:47.198Z,5.38
2023-05-21T19:08:49.600Z,5.82
2023-05-21T19:13:51.918Z,7.40
2023-05-21T19:18:54.358Z,7.00
2023-05-21T19:23:58.982Z,5.97
2023-05-21T19:29:01.692Z,6.60
2023-05-21T19:34:11.057Z,6.78
2023-05-21T19:39:13.510Z,5.28
2023-05-21T19:44:15.992Z,7.00
2023-05-21T19:49:20.501Z,5.80
2023-05-21T19:54:23.704Z,5.80
2023-05-21T19:59:26.962Z,8.65
2023-05-21T20:04:29.285Z,5.90
2023-05-21T20:09:31.802Z,5.97
2023-05-21T20:14:36.529Z,7.00
2023-05-21T20:19:39.231Z,7.90
2023-05-21T20:24:41.865Z,5.38
2023-05-21T20:29:44.158Z,7.30
2023-05-21T20:35:02.194Z,5.53
2023-05-21T20:40:07.644Z,9.43
2023-05-21T20:45:10.859Z,4.72
2023-05-21T20:50:13.120Z,7.28
2023-05-21T20:55:15.353Z,5.82
2023-05-21T21:00:17.302Z,6.45
2023-05-21T21:05:20.048Z,4.97
2023-05-21T21:10:21.637Z,6.13
2023-05-21T21:15:23.347Z,6.75
2023-05-21T21:20:25.034Z,5.78
2023-05-21T21:25:26.601Z,5.80
2023-05-21T21:30:28.181Z,6.35
2023-05-21T21:35:29.844Z,5.80
2023-05-21T21:40:31.459Z,5.47
2023-05-21T21:45:33.052Z,6.00
2023-05-21T21:50:34.710Z,5.68
2023-05-21T21:55:36.908Z,6.63
2023-05-21T22:00:38.799Z,6.18
2023-05-21T22:05:40.721Z,5.07
2023-05-21T22:10:42.603Z,7.13
2023-05-21T22:15:44.203Z,6.35
2023-05-21T22:20:48.753Z,6.63
2023-05-21T22:25:50.347Z,8.20
2023-05-21T22:30:51.992Z,10.00
2023-05-21T22:35:54.521Z,7.50
2023-05-21T22:40:56.604Z,7.43
2023-05-21T22:45:58.257Z,8.45
2023-05-21T22:51:01.952Z,8.00
2023-05-21T22:56:03.748Z,5.85
2023-05-21T23:01:05.390Z,7.82
2023-05-21T23:06:07.091Z,6.90
2023-05-21T23:11:08.675Z,8.60
2023-05-21T23:16:10.383Z,9.85
2023-05-21T23:21:12.171Z,6.60
2023-05-21T23:26:14.034Z,8.27
2023-05-21T23:31:15.754Z,6.55
2023-05-21T23:36:20.605Z,8.10
2023-05-21T23:41:23.107Z,6.00
2023-05-21T23:46:24.700Z,10.35
2023-05-21T23:51:26.418Z,8.23
2023-05-21T23:56:28.006Z,8.20
